Time;durP1;ratioP1;P1;durP2;ratioP2;P2;SDS_P1;SDS_P2;PMS_P1;PMS_P2;Temp;Humidity;BMP_temperature;BMP_pressure;BME280_temperature;BME280_humidity;BME280_pressure;Samples;Min_cycle;Max_cycle;Signal;HPM_P1;HPM_P2
2022/08/21 00:01:02;;;;;;;;;;;;;;;24.20;54.11;101345.69;5138307;27;19923;-35
2022/08/21 00:03:29;;;;;;;;;;;;;;;24.20;54.13;101336.53;5132476;27;20046;-35
2022/08/21 00:05:55;;;;;;;;;;;;;;;24.19;54.11;101338.50;5144245;27;19931;-35
2022/08/21 00:08:20;;;;;;;;;;;;;;;24.20;54.16;101336.53;5138801;27;19930;-35
2022/08/21 00:10:46;;;;;;;;;;;;;;;24.20;54.10;101330.97;5137084;27;19924;-34
2022/08/21 00:13:12;;;;;;;;;;;;;;;24.21;54.19;101332.59;5144023;27;19935;-35
2022/08/21 00:15:42;;;;;;;;;;;;;;;24.19;54.17;101332.09;5135731;27;19930;-35
2022/08/21 00:18:08;;;;;;;;;;;;;;;24.19;54.14;101327.34;5139182;27;19927;-34
2022/08/21 00:20:34;;;;;;;;;;;;;;;24.19;54.17;101323.75;5125948;27;20395;-35
2022/08/21 00:22:59;;;;;;;;;;;;;;;24.19;54.24;101320.97;5137312;27;19940;-36
2022/08/21 00:25:25;;;;;;;;;;;;;;;24.18;54.19;101322.94;5138984;27;19975;-35
2022/08/21 00:27:51;;;;;;;;;;;;;;;24.19;54.18;101315.41;5136816;27;20396;-34
2022/08/21 00:30:17;;;;;;;;;;;;;;;24.19;54.13;101307.06;5139020;27;19927;-34
2022/08/21 00:32:49;;;;;;;;;;;;;;;24.19;54.18;101320.97;5116378;27;20027;-35
2022/08/21 00:35:15;;;;;;;;;;;;;;;24.19;54.20;101315.41;5143126;27;20266;-35
2022/08/21 00:37:41;;;;;;;;;;;;;;;24.19;54.21;101316.22;5137824;27;20025;-35
2022/08/21 00:40:07;;;;;;;;;;;;;;;24.19;54.16;101310.66;5141080;27;19923;-36
2022/08/21 00:42:32;;;;;;;;;;;;;;;24.19;54.09;101313.44;5120268;27;19923;-35
2022/08/21 00:44:58;;;;;;;;;;;;;;;24.18;54.19;101314.59;5140705;27;19923;-34
2022/08/21 00:47:24;;;;;;;;;;;;;;;24.18;54.12;101305.38;5131847;27;19923;-34
2022/08/21 00:49:49;;;;;;;;;;;;;;;24.19;54.22;101315.41;5142220;27;19927;-34
2022/08/21 00:52:16;;;;;;;;;;;;;;;24.18;54.12;101311.81;5134361;27;20399;-34
2022/08/21 00:54:42;;;;;;;;;;;;;;;24.19;54.10;101307.06;5138287;27;20011;-34
2022/08/21 00:57:15;;;;;;;;;;;;;;;24.18;54.17;101306.22;5126995;27;20009;-34
2022/08/21 00:59:42;;;;;;;;;;;;;;;24.18;54.14;101302.59;5122172;27;19930;-35
2022/08/21 01:02:08;;;;;;;;;;;;;;;24.19;54.21;101307.06;5132973;27;19927;-34
2022/08/21 01:04:33;;;;;;;;;;;;;;;24.18;54.18;101303.44;5120049;27;20339;-34
2022/08/21 01:06:59;;;;;;;;;;;;;;;24.18;54.13;101300.66;5125542;27;19930;-34
2022/08/21 01:09:24;;;;;;;;;;;;;;;24.18;54.12;101303.44;5137000;27;19931;-35
2022/08/21 01:11:50;;;;;;;;;;;;;;;24.18;54.25;101300.66;5120831;27;20437;-35
2022/08/21 01:14:17;;;;;;;;;;;;;;;24.18;54.16;101299.81;5137789;27;19935;-34
2022/08/21 01:16:43;;;;;;;;;;;;;;;24.18;54.14;101303.44;5136700;27;20429;-34
2022/08/21 01:19:09;;;;;;;;;;;;;;;24.18;54.10;101309.00;5140741;27;19968;-34
2022/08/21 01:21:37;;;;;;;;;;;;;;;24.18;54.13;101311.81;5124654;28;19923;-34
2022/08/21 01:24:03;;;;;;;;;;;;;;;24.18;54.18;101303.44;5134874;27;19927;-35
2022/08/21 01:26:29;;;;;;;;;;;;;;;24.18;54.25;101313.72;5136081;27;19930;-34
2022/08/21 01:29:00;;;;;;;;;;;;;;;24.17;54.14;101312.91;5130485;27;19932;-34
2022/08/21 01:31:26;;;;;;;;;;;;;;;24.17;54.18;101312.91;5141602;27;20352;-35
2022/08/21 01:33:52;;;;;;;;;;;;;;;24.18;54.22;101302.59;5138743;27;20262;-35
2022/08/21 01:36:17;;;;;;;;;;;;;;;24.17;54.15;101312.91;5122030;27;19927;-35
2022/08/21 01:38:43;;;;;;;;;;;;;;;24.18;54.14;101314.59;5138843;27;19930;-35
2022/08/21 01:41:08;;;;;;;;;;;;;;;24.18;54.19;101313.72;5114583;27;20365;-35
2022/08/21 01:43:34;;;;;;;;;;;;;;;24.18;54.25;101313.72;5140839;27;19941;-35
2022/08/21 01:46:05;;;;;;;;;;;;;;;24.17;54.15;101318.47;5137335;27;20019;-35
2022/08/21 01:48:30;;;;;;;;;;;;;;;24.18;54.11;101316.50;5137859;27;20297;-35
2022/08/21 01:50:56;;;;;;;;;;;;;;;24.17;54.15;101312.09;5134503;27;19924;-35
2022/08/21 01:53:22;;;;;;;;;;;;;;;24.17;54.10;101310.13;5141451;27;19930;-35
2022/08/21 01:55:58;;;;;;;;;;;;;;;24.17;54.26;101306.53;5137848;27;20411;-36
2022/08/21 01:58:23;;;;;;;;;;;;;;;24.16;54.19;101305.69;5141625;27;19930;-35
2022/08/21 02:00:49;;;;;;;;;;;;;;;24.17;54.21;101307.34;5144425;27;19923;-36
2022/08/21 02:03:15;;;;;;;;;;;;;;;24.17;54.21;101307.34;5140702;27;19931;-36
2022/08/21 02:05:51;;;;;;;;;;;;;;;24.17;54.11;101309.31;5138064;27;20289;-36
2022/08/21 02:08:17;;;;;;;;;;;;;;;24.17;54.20;101310.13;5136662;27;19927;-36
2022/08/21 02:10:43;;;;;;;;;;;;;;;24.18;54.26;101308.16;5138299;27;19930;-35
2022/08/21 02:13:14;;;;;;;;;;;;;;;24.17;54.11;101303.72;5143623;27;19967;-37
2022/08/21 02:15:39;;;;;;;;;;;;;;;24.17;54.26;101306.53;5136938;27;19934;-36
2022/08/21 02:18:06;;;;;;;;;;;;;;;24.16;54.23;101300.13;5140144;27;19931;-36
2022/08/21 02:20:34;;;;;;;;;;;;;;;24.17;54.18;101298.16;5141909;27;20440;-35
2022/08/21 02:23:00;;;;;;;;;;;;;;;24.17;54.22;101303.72;5131156;27;20356;-36
2022/08/21 02:25:27;;;;;;;;;;;;;;;24.16;54.22;101307.66;5138316;27;19957;-35
2022/08/21 02:27:53;;;;;;;;;;;;;;;24.16;54.23;101313.22;5138348;27;20297;-35
2022/08/21 02:30:35;;;;;;;;;;;;;;;24.16;54.18;101300.13;5137919;27;20009;-36
2022/08/21 02:33:00;;;;;;;;;;;;;;;24.16;54.23;101308.47;5122951;27;19998;-35
2022/08/21 02:35:26;;;;;;;;;;;;;;;24.17;54.14;101293.44;5141205;27;19930;-35
2022/08/21 02:37:53;;;;;;;;;;;;;;;24.17;54.26;101298.16;5137733;27;19923;-35
2022/08/21 02:40:20;;;;;;;;;;;;;;;24.16;54.21;101290.97;5143023;27;20360;-35
2022/08/21 02:42:45;;;;;;;;;;;;;;;24.17;54.10;101296.22;5136484;27;19942;-35
2022/08/21 02:45:11;;;;;;;;;;;;;;;24.17;54.25;101293.44;5140075;27;19923;-36
2022/08/21 02:47:37;;;;;;;;;;;;;;;24.16;54.21;101293.75;5119112;27;20006;-36
2022/08/21 02:50:03;;;;;;;;;;;;;;;24.17;54.12;101296.22;5142766;27;19929;-35
2022/08/21 02:52:29;;;;;;;;;;;;;;;24.16;54.14;101291.78;5140926;27;19981;-36
2022/08/21 02:54:54;;;;;;;;;;;;;;;24.16;54.19;101297.34;5138008;27;19927;-36
2022/08/21 02:57:20;;;;;;;;;;;;;;;24.16;54.08;101297.34;5144873;27;20246;-36
2022/08/21 02:59:46;;;;;;;;;;;;;;;24.16;54.07;101290.97;5140771;27;19924;-35
2022/08/21 03:02:12;;;;;;;;;;;;;;;24.15;54.23;101290.13;5137104;27;19954;-36
2022/08/21 03:04:37;;;;;;;;;;;;;;;24.16;54.12;101290.97;5135469;27;19928;-36
2022/08/21 03:07:03;;;;;;;;;;;;;;;24.15;54.12;101290.13;5142742;27;19923;-35
2022/08/21 03:09:31;;;;;;;;;;;;;;;24.15;54.23;101292.91;5143180;27;19923;-35
2022/08/21 03:11:57;;;;;;;;;;;;;;;24.16;54.14;101294.56;5145259;27;19930;-35
2022/08/21 03:14:22;;;;;;;;;;;;;;;24.16;54.20;101282.63;5139494;27;19923;-35
2022/08/21 03:16:49;;;;;;;;;;;;;;;24.16;54.22;101283.44;5136442;27;19930;-36
2022/08/21 03:19:15;;;;;;;;;;;;;;;24.16;54.22;101285.41;5141159;27;20031;-35
2022/08/21 03:21:41;;;;;;;;;;;;;;;24.16;54.19;101280.66;5138118;27;19927;-36
2022/08/21 03:24:06;;;;;;;;;;;;;;;24.15;54.25;101286.53;5122552;27;20277;-35
2022/08/21 03:26:32;;;;;;;;;;;;;;;24.16;54.21;101279.81;5118117;27;19923;-35
2022/08/21 03:28:57;;;;;;;;;;;;;;;24.16;54.05;101286.22;5135553;27;19928;-35
2022/08/21 03:31:23;;;;;;;;;;;;;;;24.16;54.19;101279.81;5142026;27;19931;-36
2022/08/21 03:33:49;;;;;;;;;;;;;;;24.16;54.10;101279.81;5140640;27;19943;-35
2022/08/21 03:36:15;;;;;;;;;;;;;;;24.16;54.18;101282.63;5134453;27;19927;-36
2022/08/21 03:38:40;;;;;;;;;;;;;;;24.16;54.16;101277.03;5122192;28;19923;-35
2022/08/21 03:41:06;;;;;;;;;;;;;;;24.15;54.15;101279.00;5133429;27;20281;-35
2022/08/21 03:43:33;;;;;;;;;;;;;;;24.16;54.15;101285.41;5138006;27;19934;-35
2022/08/21 03:46:01;;;;;;;;;;;;;;;24.16;54.12;101285.41;5122819;27;19931;-38
2022/08/21 03:48:26;;;;;;;;;;;;;;;24.16;54.16;101293.75;5126969;27;20006;-35
2022/08/21 03:50:52;;;;;;;;;;;;;;;24.15;54.25;101292.91;5138594;27;19931;-35
2022/08/21 03:53:17;;;;;;;;;;;;;;;24.15;54.09;101298.50;5120295;27;19935;-36
2022/08/21 03:55:45;;;;;;;;;;;;;;;24.14;54.09;101296.84;5139537;27;19923;-36
2022/08/21 03:58:10;;;;;;;;;;;;;;;24.15;54.13;101300.44;5132525;27;19955;-36
2022/08/21 04:00:42;;;;;;;;;;;;;;;24.15;54.19;101301.28;5144772;27;19946;-35
2022/08/21 04:03:07;;;;;;;;;;;;;;;24.15;54.09;101306.84;5132381;27;20361;-36
2022/08/21 04:05:33;;;;;;;;;;;;;;;24.16;54.22;101304.88;5137152;27;19957;-35
2022/08/21 04:08:01;;;;;;;;;;;;;;;24.15;54.11;101308.78;5124327;27;20027;-35
2022/08/21 04:10:27;;;;;;;;;;;;;;;24.15;54.19;101312.41;5122990;27;20029;-35
2022/08/21 04:12:52;;;;;;;;;;;;;;;24.15;54.17;101314.34;5140454;27;19975;-35
2022/08/21 04:15:18;;;;;;;;;;;;;;;24.15;54.09;101314.34;5137191;27;19928;-36
2022/08/21 04:17:44;;;;;;;;;;;;;;;24.15;54.13;101317.13;5138265;27;19930;-36
2022/08/21 04:20:09;;;;;;;;;;;;;;;24.15;54.22;101314.34;5137287;27;19930;-37
2022/08/21 04:22:35;;;;;;;;;;;;;;;24.15;54.20;101309.63;5139547;27;20257;-35
2022/08/21 04:25:00;;;;;;;;;;;;;;;24.15;54.16;101311.56;5137523;27;19923;-35
2022/08/21 04:27:26;;;;;;;;;;;;;;;24.15;54.17;101312.41;5138101;27;20385;-36
2022/08/21 04:29:51;;;;;;;;;;;;;;;24.14;54.09;101309.94;5139480;27;19923;-35
2022/08/21 04:32:24;;;;;;;;;;;;;;;24.15;54.09;101308.78;5137790;27;19924;-35
2022/08/21 04:34:50;;;;;;;;;;;;;;;24.15;54.13;101306.00;5118260;27;20013;-35
2022/08/21 04:37:15;;;;;;;;;;;;;;;24.15;54.15;101311.56;5118604;27;19923;-36
2022/08/21 04:39:41;;;;;;;;;;;;;;;24.15;54.11;101314.34;5137177;27;19923;-36
2022/08/21 04:42:07;;;;;;;;;;;;;;;24.14;54.07;101312.72;5135352;27;19923;-36
2022/08/21 04:44:33;;;;;;;;;;;;;;;24.13;54.07;101309.06;5133818;27;20084;-36
2022/08/21 04:46:58;;;;;;;;;;;;;;;24.13;54.19;101311.03;5132759;27;19924;-36
2022/08/21 04:49:24;;;;;;;;;;;;;;;24.15;54.08;101322.72;5137647;27;20392;-36
2022/08/21 04:51:50;;;;;;;;;;;;;;;24.13;54.14;101320.22;5138386;27;19930;-35
2022/08/21 04:54:17;;;;;;;;;;;;;;;24.13;54.15;101317.44;5135660;27;19923;-35
2022/08/21 04:56:45;;;;;;;;;;;;;;;24.13;54.18;101323.00;5117950;27;19982;-36
2022/08/21 04:59:11;;;;;;;;;;;;;;;24.13;54.00;101322.16;5125685;27;19984;-35
2022/08/21 05:01:37;;;;;;;;;;;;;;;24.13;54.06;101311.88;5133774;27;20414;-35
2022/08/21 05:04:04;;;;;;;;;;;;;;;24.14;54.08;101318.28;5137734;27;19924;-36
2022/08/21 05:06:30;;;;;;;;;;;;;;;24.12;54.08;101315.78;5137930;27;19955;-36
2022/08/21 05:08:56;;;;;;;;;;;;;;;24.14;54.14;101323.84;5140304;27;19969;-36
2022/08/21 05:11:27;;;;;;;;;;;;;;;24.13;54.10;101317.44;5135877;27;20289;-36
2022/08/21 05:13:53;;;;;;;;;;;;;;;24.13;54.14;101322.16;5133675;27;20286;-35
2022/08/21 05:16:22;;;;;;;;;;;;;;;24.13;54.16;101319.38;5133702;27;19923;-36
2022/08/21 05:19:03;;;;;;;;;;;;;;;24.13;54.08;101327.72;5145039;27;20389;-35
2022/08/21 05:21:29;;;;;;;;;;;;;;;24.14;54.08;101332.19;5140709;27;19927;-35
2022/08/21 05:23:54;;;;;;;;;;;;;;;24.13;54.09;101338.88;5143533;27;19923;-35
2022/08/21 05:26:20;;;;;;;;;;;;;;;24.12;54.13;101340.81;5140826;27;19931;-35
2022/08/21 05:28:45;;;;;;;;;;;;;;;24.14;54.12;101334.97;5136752;27;20352;-35
2022/08/21 05:31:12;;;;;;;;;;;;;;;24.13;54.27;101344.44;5141903;27;19924;-36
2022/08/21 05:33:37;;;;;;;;;;;;;;;24.13;54.08;101339.69;5141257;27;19931;-35
2022/08/21 05:36:09;;;;;;;;;;;;;;;24.12;54.08;101346.38;5138047;27;19931;-36
2022/08/21 05:38:35;;;;;;;;;;;;;;;24.13;54.09;101345.25;5143012;27;19923;-35
2022/08/21 05:41:00;;;;;;;;;;;;;;;24.13;54.08;101344.44;5122861;27;19930;-35
2022/08/21 05:43:26;;;;;;;;;;;;;;;24.12;54.17;101340.81;5136530;27;19930;-35
2022/08/21 05:45:51;;;;;;;;;;;;;;;24.12;54.11;101338.03;5137455;27;20441;-36
2022/08/21 05:48:18;;;;;;;;;;;;;;;24.12;54.13;101338.03;5139711;27;19965;-35
2022/08/21 05:50:44;;;;;;;;;;;;;;;24.12;54.09;101343.59;5140338;27;20340;-35
2022/08/21 05:53:09;;;;;;;;;;;;;;;24.12;54.01;101340.81;5126303;27;19923;-35
2022/08/21 05:55:36;;;;;;;;;;;;;;;24.13;54.11;101336.09;5143973;27;19927;-35
2022/08/21 05:58:06;;;;;;;;;;;;;;;24.12;54.06;101340.81;5127717;27;19931;-36
2022/08/21 06:00:33;;;;;;;;;;;;;;;24.12;54.16;101342.78;5122999;27;19962;-36
2022/08/21 06:02:59;;;;;;;;;;;;;;;24.13;54.08;101345.25;5144471;27;19931;-36
2022/08/21 06:05:25;;;;;;;;;;;;;;;24.13;54.02;101336.09;5121352;27;19935;-35
2022/08/21 06:08:02;;;;;;;;;;;;;;;24.12;53.99;101335.25;5129136;27;19975;-35
2022/08/21 06:10:28;;;;;;;;;;;;;;;24.12;54.10;101340.00;5126395;27;19923;-35
2022/08/21 06:12:54;;;;;;;;;;;;;;;24.12;54.03;101329.69;5143826;27;19923;-35
2022/08/21 06:15:20;;;;;;;;;;;;;;;24.11;54.00;101325.28;5138522;27;19923;-35
2022/08/21 06:17:45;;;;;;;;;;;;;;;24.12;53.91;101342.78;5123033;27;20318;-35
2022/08/21 06:20:11;;;;;;;;;;;;;;;24.12;54.16;101331.66;5144087;27;19930;-36
2022/08/21 06:22:37;;;;;;;;;;;;;;;24.12;54.16;101345.56;5142858;27;19947;-36
2022/08/21 06:25:02;;;;;;;;;;;;;;;24.12;54.15;101345.56;5140237;27;19923;-35
2022/08/21 06:27:29;;;;;;;;;;;;;;;24.11;54.11;101336.41;5116837;27;19923;-35
2022/08/21 06:29:56;;;;;;;;;;;;;;;24.11;54.13;101336.41;5136273;27;19992;-36
2022/08/21 06:32:21;;;;;;;;;;;;;;;24.12;54.07;101340.00;5140225;27;19970;-36
2022/08/21 06:34:47;;;;;;;;;;;;;;;24.11;54.08;101339.19;5144914;27;20286;-36
2022/08/21 06:37:12;;;;;;;;;;;;;;;24.11;54.16;101344.75;5140321;27;19930;-35
2022/08/21 06:39:39;;;;;;;;;;;;;;;24.11;54.20;101343.94;5138676;27;19927;-35
2022/08/21 06:42:14;;;;;;;;;;;;;;;24.12;54.07;101351.13;5136819;27;20370;-37
2022/08/21 06:44:40;;;;;;;;;;;;;;;24.10;54.10;101345.88;5126049;27;20362;-35
2022/08/21 06:47:05;;;;;;;;;;;;;;;24.11;54.12;101344.75;5137282;27;20385;-35
2022/08/21 06:49:31;;;;;;;;;;;;;;;24.11;54.16;101343.94;5139608;27;19968;-36
2022/08/21 06:51:58;;;;;;;;;;;;;;;24.12;54.08;101351.13;5137629;27;19953;-35
2022/08/21 06:54:24;;;;;;;;;;;;;;;24.11;54.03;101344.75;5139500;27;20312;-36
2022/08/21 06:56:49;;;;;;;;;;;;;;;24.11;54.15;101344.75;5138999;27;19923;-35
2022/08/21 06:59:15;;;;;;;;;;;;;;;24.11;54.18;101347.53;5121151;27;19932;-36
2022/08/21 07:01:41;;;;;;;;;;;;;;;24.10;54.04;101345.88;5137547;27;19923;-36
2022/08/21 07:04:06;;;;;;;;;;;;;;;24.11;54.16;101350.31;5125269;27;19954;-36
2022/08/21 07:06:32;;;;;;;;;;;;;;;24.11;54.15;101343.94;5143934;27;19927;-36
2022/08/21 07:09:01;;;;;;;;;;;;;;;24.11;54.02;101338.34;5140802;27;19931;-35
2022/08/21 07:11:26;;;;;;;;;;;;;;;24.11;54.07;101341.97;5137214;27;20377;-36
2022/08/21 07:13:53;;;;;;;;;;;;;;;24.11;54.17;101341.13;5141886;27;19930;-36
2022/08/21 07:16:20;;;;;;;;;;;;;;;24.11;54.02;101344.75;5134745;27;19977;-35
2022/08/21 07:18:45;;;;;;;;;;;;;;;24.10;54.05;101340.31;5140530;27;20373;-35
2022/08/21 07:21:11;;;;;;;;;;;;;;;24.11;54.02;101338.34;5134887;27;19935;-39
2022/08/21 07:23:38;;;;;;;;;;;;;;;24.10;54.09;101340.31;5138070;27;19953;-36
2022/08/21 07:26:03;;;;;;;;;;;;;;;24.11;54.01;101349.50;5143698;27;20017;-36
2022/08/21 07:28:29;;;;;;;;;;;;;;;24.10;54.09;101343.09;5136234;27;19927;-36
2022/08/21 07:30:56;;;;;;;;;;;;;;;24.10;54.00;101345.88;5125549;27;19956;-35
2022/08/21 07:33:21;;;;;;;;;;;;;;;24.11;53.94;101343.94;5143417;27;20006;-35
2022/08/21 07:35:47;;;;;;;;;;;;;;;24.11;54.07;101349.50;5137344;27;19927;-36
2022/08/21 07:38:12;;;;;;;;;;;;;;;24.10;53.96;101345.88;5139790;27;20385;-36
2022/08/21 07:40:38;;;;;;;;;;;;;;;24.10;53.92;101345.06;5142241;27;19923;-35
2022/08/21 07:43:04;;;;;;;;;;;;;;;24.10;53.96;101343.09;5133679;27;19990;-36
2022/08/21 07:45:29;;;;;;;;;;;;;;;24.10;54.08;101345.06;5138818;27;20346;-35
2022/08/21 07:47:55;;;;;;;;;;;;;;;24.10;53.91;101354.22;5141482;27;19923;-36
2022/08/21 07:50:23;;;;;;;;;;;;;;;24.10;54.01;101350.63;5121390;27;20269;-36
2022/08/21 07:52:48;;;;;;;;;;;;;;;24.10;53.88;101345.06;5116472;27;20014;-36
2022/08/21 07:55:15;;;;;;;;;;;;;;;24.10;54.03;101348.66;5143207;27;19923;-35
2022/08/21 07:57:40;;;;;;;;;;;;;;;24.10;54.01;101336.72;5136185;27;20018;-35
2022/08/21 08:00:07;;;;;;;;;;;;;;;24.09;53.96;101335.84;5121022;27;19931;-35
2022/08/21 08:02:33;;;;;;;;;;;;;;;24.10;54.09;101326.41;5139473;27;20026;-35
2022/08/21 08:05:00;;;;;;;;;;;;;;;24.09;54.06;101326.69;5144852;27;19979;-36
2022/08/21 08:07:26;;;;;;;;;;;;;;;24.10;54.12;101320.03;5136482;27;20382;-36
2022/08/21 08:09:51;;;;;;;;;;;;;;;24.08;53.95;101320.31;5142151;27;19971;-35
2022/08/21 08:12:17;;;;;;;;;;;;;;;24.10;53.94;101320.03;5135107;27;19930;-36
2022/08/21 08:14:42;;;;;;;;;;;;;;;24.09;54.11;101313.59;5136982;27;20026;-37
2022/08/21 08:17:08;;;;;;;;;;;;;;;24.09;54.05;101319.16;5137558;27;19930;-37
2022/08/21 08:19:33;;;;;;;;;;;;;;;24.08;54.06;101317.53;5141269;27;20357;-35
2022/08/21 08:21:59;;;;;;;;;;;;;;;24.10;53.85;101308.88;5129702;27;19927;-35
2022/08/21 08:24:25;;;;;;;;;;;;;;;24.09;53.98;101319.16;5141502;27;19930;-35
2022/08/21 08:26:50;;;;;;;;;;;;;;;24.09;54.05;101318.34;5135322;27;19930;-35
2022/08/21 08:29:19;;;;;;;;;;;;;;;24.09;53.92;101318.34;5137605;27;19981;-36
2022/08/21 08:31:45;;;;;;;;;;;;;;;24.09;53.98;101324.72;5143592;27;19931;-36
2022/08/21 08:34:10;;;;;;;;;;;;;;;24.09;53.98;101318.34;5139862;27;19931;-36
2022/08/21 08:36:48;;;;;;;;;;;;;;;24.09;54.16;101321.13;5139734;27;19923;-36
2022/08/21 08:39:16;;;;;;;;;;;;;;;24.10;53.99;101322.81;5120205;27;19931;-36
2022/08/21 08:41:57;;;;;;;;;;;;;;;24.10;54.07;101325.59;5142978;27;20365;-35
2022/08/21 08:44:23;;;;;;;;;;;;;;;24.08;53.83;101319.47;5133261;27;20006;-37
2022/08/21 08:46:50;;;;;;;;;;;;;;;24.09;54.09;101323.91;5137052;27;19948;-36
2022/08/21 08:49:18;;;;;;;;;;;;;;;24.10;54.07;101320.03;5141600;27;19923;-35
2022/08/21 08:51:46;;;;;;;;;;;;;;;24.08;53.89;101317.53;5136832;27;19923;-36
2022/08/21 08:54:14;;;;;;;;;;;;;;;24.09;53.81;101310.00;5137864;27;19924;-37
2022/08/21 08:56:39;;;;;;;;;;;;;;;24.09;53.97;101319.16;5115027;27;20013;-36
2022/08/21 08:59:09;;;;;;;;;;;;;;;24.09;54.09;101318.34;5145918;27;19923;-35
2022/08/21 09:01:35;;;;;;;;;;;;;;;24.09;53.95;101315.56;5143010;27;19999;-35
2022/08/21 09:04:04;;;;;;;;;;;;;;;24.09;53.98;101312.78;5139165;27;19971;-36
2022/08/21 09:06:35;;;;;;;;;;;;;;;24.09;53.98;101318.34;5138324;27;19927;-36
2022/08/21 09:09:12;;;;;;;;;;;;;;;24.08;54.05;101309.19;5144871;27;20011;-35
2022/08/21 09:11:41;;;;;;;;;;;;;;;24.08;54.08;101303.63;5120484;27;20004;-35
2022/08/21 09:14:27;;;;;;;;;;;;;;;24.08;53.97;101300.00;5122354;27;20013;-35
2022/08/21 09:16:55;;;;;;;;;;;;;;;24.09;53.78;101301.66;5120833;27;20274;-35
2022/08/21 09:19:26;;;;;;;;;;;;;;;24.10;53.80;101300.53;5121926;27;19977;-38
2022/08/21 09:21:54;;;;;;;;;;;;;;;24.09;53.89;101290.53;5132849;27;19978;-35
2022/08/21 09:24:27;;;;;;;;;;;;;;;24.09;54.10;101296.09;5135250;27;19986;-36
2022/08/21 09:26:57;;;;;;;;;;;;;;;24.08;54.10;101297.22;5132837;27;20042;-35
2022/08/21 09:29:23;;;;;;;;;;;;;;;24.08;54.05;101294.44;5114191;27;20199;-35
2022/08/21 09:31:49;;;;;;;;;;;;;;;24.07;54.03;101292.81;5118577;27;19923;-36
2022/08/21 09:34:23;;;;;;;;;;;;;;;24.08;54.04;101295.25;5144096;27;19923;-36
2022/08/21 09:36:49;;;;;;;;;;;;;;;24.08;53.88;101294.44;5139866;27;20408;-36
2022/08/21 09:39:31;;;;;;;;;;;;;;;24.08;54.01;101295.25;5139815;27;20081;-36
2022/08/21 09:42:06;;;;;;;;;;;;;;;24.08;54.03;101297.22;5119673;27;19931;-35
2022/08/21 09:44:33;;;;;;;;;;;;;;;24.08;53.89;101298.03;5131986;27;20022;-35
2022/08/21 09:46:59;;;;;;;;;;;;;;;24.08;54.06;101283.31;5144493;27;20022;-36
2022/08/21 09:49:29;;;;;;;;;;;;;;;24.09;53.98;101293.31;5117215;27;19923;-37
2022/08/21 09:51:54;;;;;;;;;;;;;;;24.08;53.87;101295.25;5119768;27;20008;-36
2022/08/21 09:54:21;;;;;;;;;;;;;;;24.08;54.05;101291.66;5140491;27;19923;-35
2022/08/21 09:59:41;;;;;;;;;;;;;;;24.08;53.95;101286.09;5110918;27;20364;-35
2022/08/21 10:02:19;;;;;;;;;;;;;;;24.09;53.93;101290.53;5136500;27;20429;-36
2022/08/21 10:04:49;;;;;;;;;;;;;;;24.07;54.10;101279.72;5116441;27;20014;-35
2022/08/21 10:07:19;;;;;;;;;;;;;;;24.08;54.00;101283.31;5112606;27;20286;-37
2022/08/21 10:09:44;;;;;;;;;;;;;;;24.07;53.98;101274.16;5140630;27;19966;-35
2022/08/21 10:12:15;;;;;;;;;;;;;;;24.08;53.95;101277.75;5140283;27;19943;-36
2022/08/21 10:14:59;;;;;;;;;;;;;;;24.08;53.96;101272.19;5137772;27;19975;-36
2022/08/21 10:17:28;;;;;;;;;;;;;;;24.07;54.03;101274.16;5134273;27;19963;-36
2022/08/21 10:23:03;;;;;;;;;;;;;;;24.07;54.06;101271.34;5181872;27;20272;-34
2022/08/21 10:25:33;;;;;;;;;;;;;;;24.07;53.97;101276.94;5160709;27;20376;-34
2022/08/21 10:28:00;;;;;;;;;;;;;;;24.07;53.97;101267.75;5175949;27;20236;-34
2022/08/21 10:30:30;;;;;;;;;;;;;;;24.07;54.06;101270.53;5176664;27;20002;-34
2022/08/21 10:33:16;;;;;;;;;;;;;;;24.07;53.98;101263.00;5174571;27;20064;-34
2022/08/21 10:35:46;;;;;;;;;;;;;;;24.08;53.97;101261.06;5159381;27;20406;-35
2022/08/21 10:38:31;;;;;;;;;;;;;;;24.07;54.11;101262.19;5176855;27;20003;-35
2022/08/21 10:41:21;;;;;;;;;;;;;;;24.07;53.95;101263.00;5152817;27;19923;-34
2022/08/21 10:44:06;;;;;;;;;;;;;;;24.06;53.96;101261.38;5178070;27;19962;-34
2022/08/21 10:46:52;;;;;;;;;;;;;;;24.07;53.86;101263.00;5154701;27;20025;-34
2022/08/21 10:49:37;;;;;;;;;;;;;;;24.07;53.99;101268.56;5162585;27;20030;-35
2022/08/21 10:52:23;;;;;;;;;;;;;;;24.07;53.86;101260.22;5152488;27;20014;-34
2022/08/21 10:55:08;;;;;;;;;;;;;;;24.07;53.96;101256.63;5165116;27;20014;-34
2022/08/21 10:57:38;;;;;;;;;;;;;;;24.07;53.99;101256.63;5158317;27;20000;-36
2022/08/21 11:00:08;;;;;;;;;;;;;;;24.07;54.12;101259.41;5179816;27;19958;-35
2022/08/21 11:02:37;;;;;;;;;;;;;;;24.06;54.08;101263.34;5174389;27;20013;-35
2022/08/21 11:05:05;;;;;;;;;;;;;;;24.06;54.07;101255.81;5169891;27;20022;-34
2022/08/21 11:07:32;;;;;;;;;;;;;;;24.06;53.99;101255.81;5161595;27;20009;-34
2022/08/21 11:10:02;;;;;;;;;;;;;;;24.07;54.00;101267.75;5182209;27;19931;-34
2022/08/21 11:12:34;;;;;;;;;;;;;;;24.06;53.87;101257.75;5173603;27;19927;-35
2022/08/21 11:15:02;;;;;;;;;;;;;;;24.06;53.99;101255.81;5178241;27;19969;-35
2022/08/21 11:17:34;;;;;;;;;;;;;;;24.07;53.75;101253.84;5164646;27;20365;-35
2022/08/21 11:20:04;;;;;;;;;;;;;;;24.08;53.64;101258.28;5168132;27;19962;-34
2022/08/21 11:22:47;;;;;;;;;;;;;;;24.06;53.96;101253.03;5163760;27;20021;-36
2022/08/21 11:25:22;;;;;;;;;;;;;;;24.06;53.98;101250.25;5173919;27;19963;-35
2022/08/21 11:27:50;;;;;;;;;;;;;;;24.06;54.08;101253.03;5154776;27;20415;-34
2022/08/21 11:30:16;;;;;;;;;;;;;;;24.06;53.82;101247.47;5173198;27;19966;-35
2022/08/21 11:33:01;;;;;;;;;;;;;;;24.05;54.13;101251.38;5168282;27;19923;-34
2022/08/21 11:35:34;;;;;;;;;;;;;;;24.06;54.11;101254.97;5140433;27;20022;-34
2022/08/21 11:38:04;;;;;;;;;;;;;;;24.06;54.05;101254.97;5155746;27;20353;-34
2022/08/21 11:40:34;;;;;;;;;;;;;;;24.07;54.06;101251.88;5150148;27;20017;-34
2022/08/21 11:43:05;;;;;;;;;;;;;;;24.06;53.96;101246.63;5130645;27;20412;-34
2022/08/21 11:45:33;;;;;;;;;;;;;;;24.06;53.98;101250.25;5139170;27;19982;-35
2022/08/21 11:48:02;;;;;;;;;;;;;;;24.06;53.99;101254.97;5128384;27;20100;-34
2022/08/21 11:50:28;;;;;;;;;;;;;;;24.05;53.96;101248.59;5145344;27;19958;-34
2022/08/21 11:53:21;;;;;;;;;;;;;;;24.07;53.95;101248.28;5142641;27;20043;-34
2022/08/21 11:56:03;;;;;;;;;;;;;;;24.06;53.95;101230.75;5125524;27;20013;-34
2022/08/21 11:58:38;;;;;;;;;;;;;;;24.05;53.88;101237.47;5145950;27;20341;-34
2022/08/21 12:01:05;;;;;;;;;;;;;;;24.06;53.68;101236.31;5118790;27;20025;-35
2022/08/21 12:03:31;;;;;;;;;;;;;;;24.05;53.99;101234.69;5142059;27;19968;-36
2022/08/21 12:05:58;;;;;;;;;;;;;;;24.06;53.98;101241.06;5140995;27;20631;-35
2022/08/21 12:08:28;;;;;;;;;;;;;;;24.06;53.91;101241.91;5142073;27;19962;-34
2022/08/21 12:11:14;;;;;;;;;;;;;;;24.04;53.99;101233.84;5145652;27;19923;-34
2022/08/21 12:13:51;;;;;;;;;;;;;;;24.06;54.00;101229.94;5131183;27;20010;-34
2022/08/21 12:16:27;;;;;;;;;;;;;;;24.06;54.02;101227.16;5122939;27;20031;-34
2022/08/21 12:19:02;;;;;;;;;;;;;;;24.06;54.02;101232.72;5129959;27;20376;-34
2022/08/21 12:21:27;;;;;;;;;;;;;;;24.05;53.89;101231.91;5121664;27;19966;-34
2022/08/21 12:24:13;;;;;;;;;;;;;;;24.04;54.00;101228.28;5141406;27;20292;-34
2022/08/21 12:26:54;;;;;;;;;;;;;;;24.05;54.00;101229.13;5124520;27;20011;-34
2022/08/21 12:29:24;;;;;;;;;;;;;;;24.06;54.05;101227.16;5118076;27;20548;-34
2022/08/21 12:31:54;;;;;;;;;;;;;;;24.06;53.98;101232.72;5126215;27;19958;-34
2022/08/21 12:34:20;;;;;;;;;;;;;;;24.06;54.05;101229.94;5126539;27;19963;-34
2022/08/21 12:36:49;;;;;;;;;;;;;;;24.04;53.94;101225.50;5140507;27;19930;-34
2022/08/21 12:39:19;;;;;;;;;;;;;;;24.07;53.97;101228.81;5139777;27;20409;-34
2022/08/21 12:41:49;;;;;;;;;;;;;;;24.04;53.98;101228.28;5142670;27;19966;-34
2022/08/21 12:44:16;;;;;;;;;;;;;;;24.05;53.92;101223.56;5137083;27;20218;-35
2022/08/21 12:46:58;;;;;;;;;;;;;;;24.05;53.98;101218.00;5141793;27;19993;-34